sensor_id;sensor_type;location;lat;lon;timestamp;temperature;humidity
31675;DHT22;18276;45.520;11.018;2023-08-01T00:00:15;23.30;79.10
31675;DHT22;18276;45.520;11.018;2023-08-01T00:02:43;23.30;79.40
31675;DHT22;18276;45.520;11.018;2023-08-01T00:05:10;23.30;79.50
31675;DHT22;18276;45.520;11.018;2023-08-01T00:07:37;23.20;79.50
31675;DHT22;18276;45.520;11.018;2023-08-01T00:10:04;23.20;79.60
31675;DHT22;18276;45.520;11.018;2023-08-01T00:12:31;23.20;79.80
31675;DHT22;18276;45.520;11.018;2023-08-01T00:14:58;23.20;79.80
31675;DHT22;18276;45.520;11.018;2023-08-01T00:17:25;23.20;79.80
31675;DHT22;18276;45.520;11.018;2023-08-01T00:19:52;23.10;80.00
31675;DHT22;18276;45.520;11.018;2023-08-01T00:22:19;23.10;80.00
31675;DHT22;18276;45.520;11.018;2023-08-01T00:24:46;23.10;80.00
31675;DHT22;18276;45.520;11.018;2023-08-01T00:27:14;23.10;80.00
31675;DHT22;18276;45.520;11.018;2023-08-01T00:29:41;23.10;80.10
31675;DHT22;18276;45.520;11.018;2023-08-01T00:32:08;23.10;80.20
31675;DHT22;18276;45.520;11.018;2023-08-01T00:34:36;23.10;80.20
31675;DHT22;18276;45.520;11.018;2023-08-01T00:37:04;23.10;80.40
31675;DHT22;18276;45.520;11.018;2023-08-01T00:39:31;23.10;80.50
31675;DHT22;18276;45.520;11.018;2023-08-01T00:41:59;23.10;80.50
31675;DHT22;18276;45.520;11.018;2023-08-01T00:44:25;23.00;80.60
31675;DHT22;18276;45.520;11.018;2023-08-01T00:46:52;23.00;80.60
31675;DHT22;18276;45.520;11.018;2023-08-01T00:49:19;23.00;80.70
31675;DHT22;18276;45.520;11.018;2023-08-01T00:51:46;23.00;80.80
31675;DHT22;18276;45.520;11.018;2023-08-01T00:54:14;22.90;80.80
31675;DHT22;18276;45.520;11.018;2023-08-01T00:56:41;23.00;80.90
31675;DHT22;18276;45.520;11.018;2023-08-01T00:59:08;22.90;80.90
31675;DHT22;18276;45.520;11.018;2023-08-01T01:01:35;22.90;80.90
31675;DHT22;18276;45.520;11.018;2023-08-01T01:04:02;23.00;81.00
31675;DHT22;18276;45.520;11.018;2023-08-01T01:06:34;22.90;81.00
31675;DHT22;18276;45.520;11.018;2023-08-01T01:09:14;22.90;81.10
31675;DHT22;18276;45.520;11.018;2023-08-01T01:11:42;22.90;81.10
31675;DHT22;18276;45.520;11.018;2023-08-01T01:14:09;22.90;81.30
31675;DHT22;18276;45.520;11.018;2023-08-01T01:16:36;22.90;81.40
31675;DHT22;18276;45.520;11.018;2023-08-01T01:19:07;22.90;81.60
31675;DHT22;18276;45.520;11.018;2023-08-01T01:21:35;22.80;81.60
31675;DHT22;18276;45.520;11.018;2023-08-01T01:24:03;22.80;81.60
31675;DHT22;18276;45.520;11.018;2023-08-01T01:26:34;22.90;81.70
31675;DHT22;18276;45.520;11.018;2023-08-01T01:29:02;22.90;81.60
31675;DHT22;18276;45.520;11.018;2023-08-01T01:31:30;22.90;81.70
31675;DHT22;18276;45.520;11.018;2023-08-01T01:33:57;22.90;82.30
31675;DHT22;18276;45.520;11.018;2023-08-01T01:36:24;22.90;81.60
31675;DHT22;18276;45.520;11.018;2023-08-01T01:38:51;22.90;81.40
31675;DHT22;18276;45.520;11.018;2023-08-01T01:41:18;23.00;81.50
31675;DHT22;18276;45.520;11.018;2023-08-01T01:43:45;22.90;81.60
31675;DHT22;18276;45.520;11.018;2023-08-01T01:46:12;23.00;81.50
31675;DHT22;18276;45.520;11.018;2023-08-01T01:48:39;22.90;81.60
31675;DHT22;18276;45.520;11.018;2023-08-01T01:51:05;22.90;81.60
31675;DHT22;18276;45.520;11.018;2023-08-01T01:53:32;22.90;81.70
31675;DHT22;18276;45.520;11.018;2023-08-01T01:56:00;22.90;81.80
31675;DHT22;18276;45.520;11.018;2023-08-01T01:58:27;22.80;81.80
31675;DHT22;18276;45.520;11.018;2023-08-01T02:00:54;22.80;82.10
31675;DHT22;18276;45.520;11.018;2023-08-01T02:03:21;22.80;82.30
31675;DHT22;18276;45.520;11.018;2023-08-01T02:05:48;22.80;82.20
31675;DHT22;18276;45.520;11.018;2023-08-01T02:08:15;22.80;82.40
31675;DHT22;18276;45.520;11.018;2023-08-01T02:10:42;22.80;82.40
31675;DHT22;18276;45.520;11.018;2023-08-01T02:13:08;22.70;82.30
31675;DHT22;18276;45.520;11.018;2023-08-01T02:15:35;22.80;82.60
31675;DHT22;18276;45.520;11.018;2023-08-01T02:18:02;22.80;82.60
31675;DHT22;18276;45.520;11.018;2023-08-01T02:20:29;22.80;82.60
31675;DHT22;18276;45.520;11.018;2023-08-01T02:22:57;22.70;82.70
31675;DHT22;18276;45.520;11.018;2023-08-01T02:25:24;22.80;83.20
31675;DHT22;18276;45.520;11.018;2023-08-01T02:27:51;22.70;83.10
31675;DHT22;18276;45.520;11.018;2023-08-01T02:30:18;22.80;83.20
31675;DHT22;18276;45.520;11.018;2023-08-01T02:32:45;22.80;83.20
31675;DHT22;18276;45.520;11.018;2023-08-01T02:35:12;22.90;83.10
31675;DHT22;18276;45.520;11.018;2023-08-01T02:37:39;22.90;83.10
31675;DHT22;18276;45.520;11.018;2023-08-01T02:40:08;23.00;83.30
31675;DHT22;18276;45.520;11.018;2023-08-01T02:42:35;23.00;82.90
31675;DHT22;18276;45.520;11.018;2023-08-01T02:45:02;23.00;83.00
31675;DHT22;18276;45.520;11.018;2023-08-01T02:47:28;23.10;82.90
31675;DHT22;18276;45.520;11.018;2023-08-01T02:49:55;23.10;82.80
31675;DHT22;18276;45.520;11.018;2023-08-01T02:52:22;23.20;83.00
31675;DHT22;18276;45.520;11.018;2023-08-01T02:54:49;23.10;82.80
31675;DHT22;18276;45.520;11.018;2023-08-01T02:57:16;23.20;82.80
31675;DHT22;18276;45.520;11.018;2023-08-01T02:59:43;23.30;82.90
31675;DHT22;18276;45.520;11.018;2023-08-01T03:02:10;23.30;83.20
31675;DHT22;18276;45.520;11.018;2023-08-01T03:04:37;23.20;83.10
31675;DHT22;18276;45.520;11.018;2023-08-01T03:07:13;23.30;83.20
31675;DHT22;18276;45.520;11.018;2023-08-01T03:09:40;23.30;83.20
31675;DHT22;18276;45.520;11.018;2023-08-01T03:12:09;23.20;83.20
31675;DHT22;18276;45.520;11.018;2023-08-01T03:14:36;23.20;83.20
31675;DHT22;18276;45.520;11.018;2023-08-01T03:17:03;23.20;83.20
31675;DHT22;18276;45.520;11.018;2023-08-01T03:19:30;23.20;83.20
31675;DHT22;18276;45.520;11.018;2023-08-01T03:21:57;23.30;83.20
31675;DHT22;18276;45.520;11.018;2023-08-01T03:24:24;23.30;83.30
31675;DHT22;18276;45.520;11.018;2023-08-01T03:26:51;23.30;83.30
31675;DHT22;18276;45.520;11.018;2023-08-01T03:29:17;23.30;83.30
31675;DHT22;18276;45.520;11.018;2023-08-01T03:31:45;23.30;83.30
31675;DHT22;18276;45.520;11.018;2023-08-01T03:34:13;23.30;83.40
31675;DHT22;18276;45.520;11.018;2023-08-01T03:36:40;23.30;83.50
31675;DHT22;18276;45.520;11.018;2023-08-01T03:39:07;23.30;83.40
31675;DHT22;18276;45.520;11.018;2023-08-01T03:41:36;23.40;83.50
31675;DHT22;18276;45.520;11.018;2023-08-01T03:44:04;23.40;83.40
31675;DHT22;18276;45.520;11.018;2023-08-01T03:46:31;23.50;83.40
31675;DHT22;18276;45.520;11.018;2023-08-01T03:48:57;23.50;83.30
31675;DHT22;18276;45.520;11.018;2023-08-01T03:51:24;23.50;83.20
31675;DHT22;18276;45.520;11.018;2023-08-01T03:53:51;23.60;83.10
31675;DHT22;18276;45.520;11.018;2023-08-01T03:56:37;23.60;83.10
31675;DHT22;18276;45.520;11.018;2023-08-01T03:59:06;23.60;83.00
31675;DHT22;18276;45.520;11.018;2023-08-01T04:01:35;23.60;83.10
31675;DHT22;18276;45.520;11.018;2023-08-01T04:04:03;23.60;82.90
31675;DHT22;18276;45.520;11.018;2023-08-01T04:06:30;23.70;83.10
31675;DHT22;18276;45.520;11.018;2023-08-01T04:08:57;23.70;83.00
31675;DHT22;18276;45.520;11.018;2023-08-01T04:11:24;23.70;82.90
31675;DHT22;18276;45.520;11.018;2023-08-01T04:13:51;23.70;82.90
31675;DHT22;18276;45.520;11.018;2023-08-01T04:16:18;23.70;82.80
31675;DHT22;18276;45.520;11.018;2023-08-01T04:18:45;23.80;83.00
31675;DHT22;18276;45.520;11.018;2023-08-01T04:21:12;23.80;83.10
31675;DHT22;18276;45.520;11.018;2023-08-01T04:23:39;23.70;83.10
31675;DHT22;18276;45.520;11.018;2023-08-01T04:26:06;23.70;83.30
31675;DHT22;18276;45.520;11.018;2023-08-01T04:28:34;23.70;83.50
31675;DHT22;18276;45.520;11.018;2023-08-01T04:31:01;23.70;83.70
31675;DHT22;18276;45.520;11.018;2023-08-01T04:33:28;23.70;84.00
31675;DHT22;18276;45.520;11.018;2023-08-01T04:35:57;23.60;84.60
31675;DHT22;18276;45.520;11.018;2023-08-01T04:38:24;23.60;84.70
31675;DHT22;18276;45.520;11.018;2023-08-01T04:40:50;23.60;84.70
31675;DHT22;18276;45.520;11.018;2023-08-01T04:43:17;23.60;84.80
31675;DHT22;18276;45.520;11.018;2023-08-01T04:45:45;23.70;85.20
31675;DHT22;18276;45.520;11.018;2023-08-01T04:48:12;23.70;85.20
31675;DHT22;18276;45.520;11.018;2023-08-01T04:50:38;23.70;85.10
31675;DHT22;18276;45.520;11.018;2023-08-01T04:53:05;23.70;84.90
31675;DHT22;18276;45.520;11.018;2023-08-01T04:55:33;23.70;85.00
31675;DHT22;18276;45.520;11.018;2023-08-01T04:57:59;23.80;84.90
31675;DHT22;18276;45.520;11.018;2023-08-01T05:00:26;23.80;84.70
31675;DHT22;18276;45.520;11.018;2023-08-01T05:02:53;23.80;84.60
31675;DHT22;18276;45.520;11.018;2023-08-01T05:05:20;23.80;84.40
31675;DHT22;18276;45.520;11.018;2023-08-01T05:07:47;23.90;84.30
31675;DHT22;18276;45.520;11.018;2023-08-01T05:10:14;23.90;84.10
31675;DHT22;18276;45.520;11.018;2023-08-01T05:12:43;24.00;83.90
31675;DHT22;18276;45.520;11.018;2023-08-01T05:15:10;24.10;83.80
31675;DHT22;18276;45.520;11.018;2023-08-01T05:17:37;24.10;83.60
31675;DHT22;18276;45.520;11.018;2023-08-01T05:20:04;24.20;83.30
31675;DHT22;18276;45.520;11.018;2023-08-01T05:22:32;24.20;83.20
31675;DHT22;18276;45.520;11.018;2023-08-01T05:24:58;24.20;83.30
31675;DHT22;18276;45.520;11.018;2023-08-01T05:27:25;24.20;83.70
31675;DHT22;18276;45.520;11.018;2023-08-01T05:29:52;24.20;84.00
31675;DHT22;18276;45.520;11.018;2023-08-01T05:32:19;24.10;84.30
31675;DHT22;18276;45.520;11.018;2023-08-01T05:34:46;24.10;84.40
31675;DHT22;18276;45.520;11.018;2023-08-01T05:37:13;24.10;84.50
31675;DHT22;18276;45.520;11.018;2023-08-01T05:39:40;24.20;84.50
31675;DHT22;18276;45.520;11.018;2023-08-01T05:42:06;24.20;84.50
31675;DHT22;18276;45.520;11.018;2023-08-01T05:44:35;24.20;84.60
31675;DHT22;18276;45.520;11.018;2023-08-01T05:47:02;24.20;85.40
31675;DHT22;18276;45.520;11.018;2023-08-01T05:49:29;24.30;84.80
31675;DHT22;18276;45.520;11.018;2023-08-01T05:51:56;24.30;84.80
31675;DHT22;18276;45.520;11.018;2023-08-01T05:54:23;24.30;84.70
31675;DHT22;18276;45.520;11.018;2023-08-01T05:56:50;24.40;84.70
31675;DHT22;18276;45.520;11.018;2023-08-01T05:59:17;24.50;84.70
31675;DHT22;18276;45.520;11.018;2023-08-01T06:01:44;24.50;84.70
31675;DHT22;18276;45.520;11.018;2023-08-01T06:04:11;24.60;84.80
31675;DHT22;18276;45.520;11.018;2023-08-01T06:06:38;24.60;84.90
31675;DHT22;18276;45.520;11.018;2023-08-01T06:09:05;24.70;84.90
31675;DHT22;18276;45.520;11.018;2023-08-01T06:11:32;24.90;84.90
31675;DHT22;18276;45.520;11.018;2023-08-01T06:14:00;25.10;84.50
31675;DHT22;18276;45.520;11.018;2023-08-01T06:16:27;25.20;84.10
31675;DHT22;18276;45.520;11.018;2023-08-01T06:18:54;25.30;83.80
31675;DHT22;18276;45.520;11.018;2023-08-01T06:21:21;25.40;83.50
31675;DHT22;18276;45.520;11.018;2023-08-01T06:23:48;25.60;83.30
31675;DHT22;18276;45.520;11.018;2023-08-01T06:26:14;25.70;83.00
31675;DHT22;18276;45.520;11.018;2023-08-01T06:28:42;25.80;82.80
31675;DHT22;18276;45.520;11.018;2023-08-01T06:31:09;25.80;82.70
31675;DHT22;18276;45.520;11.018;2023-08-01T06:33:36;25.80;82.70
31675;DHT22;18276;45.520;11.018;2023-08-01T06:36:04;25.80;82.60
31675;DHT22;18276;45.520;11.018;2023-08-01T06:38:31;25.80;82.60
31675;DHT22;18276;45.520;11.018;2023-08-01T06:40:58;25.80;82.60
31675;DHT22;18276;45.520;11.018;2023-08-01T06:43:25;25.90;82.60
31675;DHT22;18276;45.520;11.018;2023-08-01T06:45:52;25.90;82.60
31675;DHT22;18276;45.520;11.018;2023-08-01T06:48:19;26.00;82.60
31675;DHT22;18276;45.520;11.018;2023-08-01T06:50:46;26.10;82.50
31675;DHT22;18276;45.520;11.018;2023-08-01T06:53:13;26.20;82.30
31675;DHT22;18276;45.520;11.018;2023-08-01T06:55:40;26.20;82.00
31675;DHT22;18276;45.520;11.018;2023-08-01T06:58:06;26.20;81.90
31675;DHT22;18276;45.520;11.018;2023-08-01T07:00:33;26.20;81.90
31675;DHT22;18276;45.520;11.018;2023-08-01T07:03:00;26.20;82.00
31675;DHT22;18276;45.520;11.018;2023-08-01T07:05:27;26.20;81.80
31675;DHT22;18276;45.520;11.018;2023-08-01T07:07:54;26.10;81.80
31675;DHT22;18276;45.520;11.018;2023-08-01T07:10:22;26.10;82.10
31675;DHT22;18276;45.520;11.018;2023-08-01T07:12:49;26.00;82.30
31675;DHT22;18276;45.520;11.018;2023-08-01T07:15:16;26.00;83.00
31675;DHT22;18276;45.520;11.018;2023-08-01T07:17:42;26.10;83.10
31675;DHT22;18276;45.520;11.018;2023-08-01T07:20:09;26.20;83.10
31675;DHT22;18276;45.520;11.018;2023-08-01T07:22:36;26.40;82.80
31675;DHT22;18276;45.520;11.018;2023-08-01T07:25:03;26.60;82.40
31675;DHT22;18276;45.520;11.018;2023-08-01T07:27:31;26.90;81.90
31675;DHT22;18276;45.520;11.018;2023-08-01T07:29:58;27.00;81.40
31675;DHT22;18276;45.520;11.018;2023-08-01T07:32:25;27.10;81.00
31675;DHT22;18276;45.520;11.018;2023-08-01T07:34:54;27.30;80.70
31675;DHT22;18276;45.520;11.018;2023-08-01T07:37:21;27.40;80.20
31675;DHT22;18276;45.520;11.018;2023-08-01T07:39:49;27.50;79.90
31675;DHT22;18276;45.520;11.018;2023-08-01T07:42:16;28.00;79.90
31675;DHT22;18276;45.520;11.018;2023-08-01T07:44:43;28.80;79.90
31675;DHT22;18276;45.520;11.018;2023-08-01T07:47:10;29.60;77.40
31675;DHT22;18276;45.520;11.018;2023-08-01T07:49:36;30.50;76.00
31675;DHT22;18276;45.520;11.018;2023-08-01T07:52:03;31.50;74.20
31675;DHT22;18276;45.520;11.018;2023-08-01T07:54:30;32.60;72.00
31675;DHT22;18276;45.520;11.018;2023-08-01T07:56:57;33.60;69.40
31675;DHT22;18276;45.520;11.018;2023-08-01T07:59:24;34.50;66.50
31675;DHT22;18276;45.520;11.018;2023-08-01T08:01:51;34.70;63.60
31675;DHT22;18276;45.520;11.018;2023-08-01T08:04:19;34.80;59.00
31675;DHT22;18276;45.520;11.018;2023-08-01T08:06:46;34.70;57.50
31675;DHT22;18276;45.520;11.018;2023-08-01T08:09:13;34.40;54.30
31675;DHT22;18276;45.520;11.018;2023-08-01T08:11:40;33.80;52.40
31675;DHT22;18276;45.520;11.018;2023-08-01T08:14:07;34.10;52.90
31675;DHT22;18276;45.520;11.018;2023-08-01T08:16:34;34.50;52.40
31675;DHT22;18276;45.520;11.018;2023-08-01T08:19:01;34.80;51.50
31675;DHT22;18276;45.520;11.018;2023-08-01T08:21:28;35.40;52.30
31675;DHT22;18276;45.520;11.018;2023-08-01T08:23:55;36.30;50.70
31675;DHT22;18276;45.520;11.018;2023-08-01T08:26:22;36.60;50.20
31675;DHT22;18276;45.520;11.018;2023-08-01T08:28:50;36.50;48.40
31675;DHT22;18276;45.520;11.018;2023-08-01T08:31:17;36.70;47.90
31675;DHT22;18276;45.520;11.018;2023-08-01T08:33:44;37.10;47.00
31675;DHT22;18276;45.520;11.018;2023-08-01T08:36:11;37.60;46.40
31675;DHT22;18276;45.520;11.018;2023-08-01T08:38:38;37.90;44.90
31675;DHT22;18276;45.520;11.018;2023-08-01T08:41:09;38.00;44.60
31675;DHT22;18276;45.520;11.018;2023-08-01T08:43:36;37.70;45.20
31675;DHT22;18276;45.520;11.018;2023-08-01T08:46:04;37.40;45.50
31675;DHT22;18276;45.520;11.018;2023-08-01T08:48:31;37.00;45.60
31675;DHT22;18276;45.520;11.018;2023-08-01T08:50:59;37.10;46.60
31675;DHT22;18276;45.520;11.018;2023-08-01T08:53:27;37.70;46.00
31675;DHT22;18276;45.520;11.018;2023-08-01T08:55:54;38.10;44.70
31675;DHT22;18276;45.520;11.018;2023-08-01T08:58:21;38.30;45.20
31675;DHT22;18276;45.520;11.018;2023-08-01T09:00:48;38.30;44.70
31675;DHT22;18276;45.520;11.018;2023-08-01T09:03:16;38.10;44.60
31675;DHT22;18276;45.520;11.018;2023-08-01T09:05:50;38.10;44.10
31675;DHT22;18276;45.520;11.018;2023-08-01T09:08:20;38.40;44.20
31675;DHT22;18276;45.520;11.018;2023-08-01T09:10:47;38.90;43.50
31675;DHT22;18276;45.520;11.018;2023-08-01T09:13:14;39.40;43.00
31675;DHT22;18276;45.520;11.018;2023-08-01T09:15:41;39.40;42.00
31675;DHT22;18276;45.520;11.018;2023-08-01T09:18:11;39.30;42.60
31675;DHT22;18276;45.520;11.018;2023-08-01T09:20:48;39.40;42.30
31675;DHT22;18276;45.520;11.018;2023-08-01T09:23:15;39.70;42.20
31675;DHT22;18276;45.520;11.018;2023-08-01T09:25:43;39.60;41.90
31675;DHT22;18276;45.520;11.018;2023-08-01T09:28:16;39.50;42.20
31675;DHT22;18276;45.520;11.018;2023-08-01T09:30:47;39.40;41.40
31675;DHT22;18276;45.520;11.018;2023-08-01T09:33:14;39.10;42.80
31675;DHT22;18276;45.520;11.018;2023-08-01T09:35:41;39.40;42.10
31675;DHT22;18276;45.520;11.018;2023-08-01T09:38:14;39.10;41.70
31675;DHT22;18276;45.520;11.018;2023-08-01T09:40:42;38.20;43.00
31675;DHT22;18276;45.520;11.018;2023-08-01T09:43:10;37.50;44.00
31675;DHT22;18276;45.520;11.018;2023-08-01T09:45:37;36.60;45.50
31675;DHT22;18276;45.520;11.018;2023-08-01T09:48:04;35.90;46.80
31675;DHT22;18276;45.520;11.018;2023-08-01T09:50:32;35.40;47.90
31675;DHT22;18276;45.520;11.018;2023-08-01T09:53:06;34.60;48.80
31675;DHT22;18276;45.520;11.018;2023-08-01T09:55:34;34.10;50.00
31675;DHT22;18276;45.520;11.018;2023-08-01T09:58:01;33.70;50.60
31675;DHT22;18276;45.520;11.018;2023-08-01T10:00:28;33.30;50.70
31675;DHT22;18276;45.520;11.018;2023-08-01T10:02:58;33.30;51.30
31675;DHT22;18276;45.520;11.018;2023-08-01T10:05:29;33.20;51.60
31675;DHT22;18276;45.520;11.018;2023-08-01T10:08:00;32.80;52.10
31675;DHT22;18276;45.520;11.018;2023-08-01T10:10:27;32.40;53.50
31675;DHT22;18276;45.520;11.018;2023-08-01T10:12:56;32.00;54.40
31675;DHT22;18276;45.520;11.018;2023-08-01T10:15:23;31.70;55.50
31675;DHT22;18276;45.520;11.018;2023-08-01T10:17:50;31.40;56.30
31675;DHT22;18276;45.520;11.018;2023-08-01T10:20:18;31.30;56.80
31675;DHT22;18276;45.520;11.018;2023-08-01T10:22:45;31.20;57.10
31675;DHT22;18276;45.520;11.018;2023-08-01T10:25:15;31.20;57.10
31675;DHT22;18276;45.520;11.018;2023-08-01T10:27:42;31.30;57.10
31675;DHT22;18276;45.520;11.018;2023-08-01T10:30:09;31.50;57.70
31675;DHT22;18276;45.520;11.018;2023-08-01T10:32:38;31.50;57.30
31675;DHT22;18276;45.520;11.018;2023-08-01T10:35:05;31.30;57.60
31675;DHT22;18276;45.520;11.018;2023-08-01T10:37:42;31.10;58.10
31675;DHT22;18276;45.520;11.018;2023-08-01T10:40:10;31.10;58.70
31675;DHT22;18276;45.520;11.018;2023-08-01T10:42:42;31.10;59.20
31675;DHT22;18276;45.520;11.018;2023-08-01T10:45:24;31.10;58.40
31675;DHT22;18276;45.520;11.018;2023-08-01T10:48:09;31.50;58.40
31675;DHT22;18276;45.520;11.018;2023-08-01T10:50:36;31.70;57.10
31675;DHT22;18276;45.520;11.018;2023-08-01T10:53:12;31.80;57.40
31675;DHT22;18276;45.520;11.018;2023-08-01T10:55:42;32.30;57.00
31675;DHT22;18276;45.520;11.018;2023-08-01T10:58:10;33.40;56.00
31675;DHT22;18276;45.520;11.018;2023-08-01T11:00:37;34.10;54.50
31675;DHT22;18276;45.520;11.018;2023-08-01T11:03:04;34.70;53.90
31675;DHT22;18276;45.520;11.018;2023-08-01T11:05:32;34.70;52.40
31675;DHT22;18276;45.520;11.018;2023-08-01T11:07:59;34.10;52.40
31675;DHT22;18276;45.520;11.018;2023-08-01T11:10:30;33.60;52.80
31675;DHT22;18276;45.520;11.018;2023-08-01T11:12:57;33.00;53.30
31675;DHT22;18276;45.520;11.018;2023-08-01T11:15:24;32.60;54.20
31675;DHT22;18276;45.520;11.018;2023-08-01T11:17:55;32.20;55.40
31675;DHT22;18276;45.520;11.018;2023-08-01T11:20:23;31.70;56.10
31675;DHT22;18276;45.520;11.018;2023-08-01T11:23:00;31.40;56.90
31675;DHT22;18276;45.520;11.018;2023-08-01T11:25:45;31.10;57.90
31675;DHT22;18276;45.520;11.018;2023-08-01T11:28:16;30.80;59.20
31675;DHT22;18276;45.520;11.018;2023-08-01T11:30:43;30.60;60.50
31675;DHT22;18276;45.520;11.018;2023-08-01T11:33:22;30.50;60.60
31675;DHT22;18276;45.520;11.018;2023-08-01T11:35:53;30.30;60.90
31675;DHT22;18276;45.520;11.018;2023-08-01T11:38:25;30.20;61.60
31675;DHT22;18276;45.520;11.018;2023-08-01T11:40:52;30.00;61.70
31675;DHT22;18276;45.520;11.018;2023-08-01T11:43:19;30.00;62.50
31675;DHT22;18276;45.520;11.018;2023-08-01T11:45:55;30.20;62.40
31675;DHT22;18276;45.520;11.018;2023-08-01T11:48:22;30.20;62.00
31675;DHT22;18276;45.520;11.018;2023-08-01T11:50:57;30.80;61.80
31675;DHT22;18276;45.520;11.018;2023-08-01T11:53:25;31.20;60.80
31675;DHT22;18276;45.520;11.018;2023-08-01T11:55:52;31.60;59.60
31675;DHT22;18276;45.520;11.018;2023-08-01T11:58:32;31.90;58.50
31675;DHT22;18276;45.520;11.018;2023-08-01T12:01:06;32.10;58.40
31675;DHT22;18276;45.520;11.018;2023-08-01T12:03:44;32.40;58.00
31675;DHT22;18276;45.520;11.018;2023-08-01T12:06:11;32.50;57.40
31675;DHT22;18276;45.520;11.018;2023-08-01T12:08:42;32.50;56.90
31675;DHT22;18276;45.520;11.018;2023-08-01T12:13:46;32.70;56.70
31675;DHT22;18276;45.520;11.018;2023-08-01T12:16:12;32.80;56.40
31675;DHT22;18276;45.520;11.018;2023-08-01T12:18:42;32.70;56.70
31675;DHT22;18276;45.520;11.018;2023-08-01T12:21:16;32.90;56.50
31675;DHT22;18276;45.520;11.018;2023-08-01T12:23:44;32.80;56.10
31675;DHT22;18276;45.520;11.018;2023-08-01T12:26:10;32.90;55.90
31675;DHT22;18276;45.520;11.018;2023-08-01T12:28:37;33.00;55.80
31675;DHT22;18276;45.520;11.018;2023-08-01T12:31:04;33.00;55.20
31675;DHT22;18276;45.520;11.018;2023-08-01T12:33:32;32.80;54.70
31675;DHT22;18276;45.520;11.018;2023-08-01T12:35:59;32.50;55.50
31675;DHT22;18276;45.520;11.018;2023-08-01T12:38:26;32.60;54.70
31675;DHT22;18276;45.520;11.018;2023-08-01T12:40:54;33.20;54.50
31675;DHT22;18276;45.520;11.018;2023-08-01T12:43:21;33.50;53.00
31675;DHT22;18276;45.520;11.018;2023-08-01T12:45:49;33.70;53.10
31675;DHT22;18276;45.520;11.018;2023-08-01T12:48:20;33.70;52.60
31675;DHT22;18276;45.520;11.018;2023-08-01T12:50:47;33.50;52.20
31675;DHT22;18276;45.520;11.018;2023-08-01T12:53:15;33.50;51.90
31675;DHT22;18276;45.520;11.018;2023-08-01T12:55:43;33.40;52.50
31675;DHT22;18276;45.520;11.018;2023-08-01T12:58:11;33.60;51.40
31675;DHT22;18276;45.520;11.018;2023-08-01T13:00:41;33.70;49.40
31675;DHT22;18276;45.520;11.018;2023-08-01T13:03:08;33.80;49.10
31675;DHT22;18276;45.520;11.018;2023-08-01T13:05:40;33.90;48.50
31675;DHT22;18276;45.520;11.018;2023-08-01T13:08:07;34.10;48.30
31675;DHT22;18276;45.520;11.018;2023-08-01T13:10:35;34.30;48.30
31675;DHT22;18276;45.520;11.018;2023-08-01T13:13:02;34.50;48.60
31675;DHT22;18276;45.520;11.018;2023-08-01T13:15:30;34.90;48.20
31675;DHT22;18276;45.520;11.018;2023-08-01T13:17:57;35.00;46.40
31675;DHT22;18276;45.520;11.018;2023-08-01T13:20:24;34.60;45.80
31675;DHT22;18276;45.520;11.018;2023-08-01T13:22:54;34.40;46.00
31675;DHT22;18276;45.520;11.018;2023-08-01T13:25:21;34.10;47.10
31675;DHT22;18276;45.520;11.018;2023-08-01T13:27:48;33.70;47.80
31675;DHT22;18276;45.520;11.018;2023-08-01T13:30:15;33.80;48.60
31675;DHT22;18276;45.520;11.018;2023-08-01T13:32:45;33.80;48.90
31675;DHT22;18276;45.520;11.018;2023-08-01T13:35:13;33.80;48.80
31675;DHT22;18276;45.520;11.018;2023-08-01T13:37:40;33.60;49.00
31675;DHT22;18276;45.520;11.018;2023-08-01T13:40:07;33.50;49.50
31675;DHT22;18276;45.520;11.018;2023-08-01T13:42:34;33.30;49.50
31675;DHT22;18276;45.520;11.018;2023-08-01T13:45:01;32.80;50.00
31675;DHT22;18276;45.520;11.018;2023-08-01T13:47:28;32.40;50.80
31675;DHT22;18276;45.520;11.018;2023-08-01T13:49:55;32.40;51.60
31675;DHT22;18276;45.520;11.018;2023-08-01T13:52:22;32.60;51.60
31675;DHT22;18276;45.520;11.018;2023-08-01T13:54:49;33.00;51.50
31675;DHT22;18276;45.520;11.018;2023-08-01T13:57:16;33.10;51.10
31675;DHT22;18276;45.520;11.018;2023-08-01T13:59:43;33.10;50.70
31675;DHT22;18276;45.520;11.018;2023-08-01T14:02:20;33.00;50.50
31675;DHT22;18276;45.520;11.018;2023-08-01T14:04:50;32.60;50.90
31675;DHT22;18276;45.520;11.018;2023-08-01T14:07:17;32.30;51.80
31675;DHT22;18276;45.520;11.018;2023-08-01T14:09:44;32.00;52.70
31675;DHT22;18276;45.520;11.018;2023-08-01T14:12:11;31.80;53.10
31675;DHT22;18276;45.520;11.018;2023-08-01T14:14:38;31.90;53.40
31675;DHT22;18276;45.520;11.018;2023-08-01T14:17:05;32.00;53.60
31675;DHT22;18276;45.520;11.018;2023-08-01T14:19:32;32.20;53.40
31675;DHT22;18276;45.520;11.018;2023-08-01T14:21:59;32.40;53.30
31675;DHT22;18276;45.520;11.018;2023-08-01T14:24:26;32.50;53.30
31675;DHT22;18276;45.520;11.018;2023-08-01T14:26:53;32.50;53.40
31675;DHT22;18276;45.520;11.018;2023-08-01T14:29:20;32.40;53.40
31675;DHT22;18276;45.520;11.018;2023-08-01T14:31:49;32.50;53.50
31675;DHT22;18276;45.520;11.018;2023-08-01T14:34:18;32.40;53.10
31675;DHT22;18276;45.520;11.018;2023-08-01T14:36:48;32.20;53.20
31675;DHT22;18276;45.520;11.018;2023-08-01T14:39:15;32.10;53.80
31675;DHT22;18276;45.520;11.018;2023-08-01T14:41:49;32.10;53.40
31675;DHT22;18276;45.520;11.018;2023-08-01T14:44:19;32.10;53.50
31675;DHT22;18276;45.520;11.018;2023-08-01T14:46:45;32.10;53.40
31675;DHT22;18276;45.520;11.018;2023-08-01T14:49:12;32.30;53.30
31675;DHT22;18276;45.520;11.018;2023-08-01T14:51:39;32.60;52.60
31675;DHT22;18276;45.520;11.018;2023-08-01T14:54:06;32.50;51.90
31675;DHT22;18276;45.520;11.018;2023-08-01T14:56:33;32.20;51.70
31675;DHT22;18276;45.520;11.018;2023-08-01T14:59:00;32.00;52.80
31675;DHT22;18276;45.520;11.018;2023-08-01T15:01:27;31.90;52.90
31675;DHT22;18276;45.520;11.018;2023-08-01T15:03:54;31.80;53.30
31675;DHT22;18276;45.520;11.018;2023-08-01T15:06:21;31.90;53.30
31675;DHT22;18276;45.520;11.018;2023-08-01T15:08:48;32.10;53.50
31675;DHT22;18276;45.520;11.018;2023-08-01T15:11:15;32.40;53.20
31675;DHT22;18276;45.520;11.018;2023-08-01T15:13:42;32.60;53.10
31675;DHT22;18276;45.520;11.018;2023-08-01T15:16:10;32.70;52.40
31675;DHT22;18276;45.520;11.018;2023-08-01T15:18:40;32.70;52.60
31675;DHT22;18276;45.520;11.018;2023-08-01T15:21:07;32.70;52.50